Time;durP1;ratioP1;P1;durP2;ratioP2;P2;SDS_P1;SDS_P2;PMS_P1;PMS_P2;Temp;Humidity;BMP_temperature;BMP_pressure;BME280_temperature;BME280_humidity;BME280_pressure;Samples;Min_cycle;Max_cycle;Signal;HPM_P1;HPM_P2
2021/09/09 00:00:05;;;;;;;14.30;11.07;;;;;;;;;;5026493;28;20043;-76
2021/09/09 00:02:49;;;;;;;12.43;10.65;;;;;;;;;;5042128;28;20064;-77
2021/09/09 00:05:34;;;;;;;13.65;11.25;;;;;;;;;;5041611;28;20083;-77
2021/09/09 00:08:18;;;;;;;13.57;10.45;;;;;;;;;;5026623;28;20099;-77
2021/09/09 00:11:03;;;;;;;14.07;11.40;;;;;;;;;;5042103;28;20070;-76
2021/09/09 00:13:47;;;;;;;12.85;10.48;;;;;;;;;;5040199;28;20767;-75
2021/09/09 00:16:32;;;;;;;14.43;11.02;;;;;;;;;;5041489;28;20059;-74
2021/09/09 00:19:16;;;;;;;13.15;10.77;;;;;;;;;;5041243;28;20035;-75
2021/09/09 00:22:01;;;;;;;13.57;10.38;;;;;;;;;;5026096;28;20538;-77
2021/09/09 00:24:45;;;;;;;13.80;10.45;;;;;;;;;;5040445;28;20055;-76
2021/09/09 00:27:30;;;;;;;11.95;10.63;;;;;;;;;;5040771;28;20067;-76
2021/09/09 00:30:15;;;;;;;14.85;10.57;;;;;;;;;;5039672;28;20137;-75
2021/09/09 00:32:59;;;;;;;12.60;10.65;;;;;;;;;;5040920;28;20203;-76
2021/09/09 00:35:44;;;;;;;13.82;10.57;;;;;;;;;;5025632;28;20047;-76
2021/09/09 00:38:28;;;;;;;11.93;10.35;;;;;;;;;;5040538;28;20039;-76
2021/09/09 00:41:13;;;;;;;11.63;10.30;;;;;;;;;;5040708;28;20046;-76
2021/09/09 00:43:58;;;;;;;13.88;10.02;;;;;;;;;;5041955;28;20075;-76
2021/09/09 00:46:42;;;;;;;12.10;10.10;;;;;;;;;;5040832;28;20087;-75
2021/09/09 00:49:27;;;;;;;14.25;10.55;;;;;;;;;;5040324;28;20044;-75
2021/09/09 00:52:12;;;;;;;11.95;10.02;;;;;;;;;;5040143;28;20958;-75
2021/09/09 00:54:56;;;;;;;13.27;10.30;;;;;;;;;;5025326;28;20493;-77
2021/09/09 00:57:41;;;;;;;12.93;9.95;;;;;;;;;;5039969;28;20031;-76
2021/09/09 01:00:25;;;;;;;12.90;10.10;;;;;;;;;;5041095;28;20040;-76
2021/09/09 01:03:10;;;;;;;11.50;9.73;;;;;;;;;;5025104;28;20110;-76
2021/09/09 01:05:54;;;;;;;11.98;9.55;;;;;;;;;;5026603;28;20123;-76
2021/09/09 01:08:39;;;;;;;11.27;9.45;;;;;;;;;;5043140;28;20040;-76
2021/09/09 01:11:24;;;;;;;12.60;9.75;;;;;;;;;;5044355;28;20452;-77
2021/09/09 01:14:09;;;;;;;13.13;9.80;;;;;;;;;;5044134;28;20066;-79
2021/09/09 01:16:54;;;;;;;11.07;9.23;;;;;;;;;;5043639;28;20497;-80
2021/09/09 01:19:38;;;;;;;11.27;9.75;;;;;;;;;;5044185;28;20091;-79
2021/09/09 01:22:23;;;;;;;11.80;9.52;;;;;;;;;;5044232;28;20047;-80
2021/09/09 01:25:08;;;;;;;11.55;9.88;;;;;;;;;;5044801;28;20071;-80
2021/09/09 01:27:53;;;;;;;12.18;9.88;;;;;;;;;;5044534;28;20078;-78
2021/09/09 01:30:38;;;;;;;11.55;9.70;;;;;;;;;;5030088;28;20063;-79
2021/09/09 01:33:22;;;;;;;12.50;9.65;;;;;;;;;;5051810;28;20040;-79
2021/09/09 01:36:07;;;;;;;11.95;9.98;;;;;;;;;;5050936;28;20082;-77
2021/09/09 01:38:52;;;;;;;11.85;10.02;;;;;;;;;;5053629;28;20044;-78
2021/09/09 01:41:36;;;;;;;14.13;10.73;;;;;;;;;;5051901;28;20047;-79
2021/09/09 01:44:21;;;;;;;13.73;10.68;;;;;;;;;;5034857;28;20110;-78
2021/09/09 01:47:06;;;;;;;12.60;10.48;;;;;;;;;;5046466;28;20501;-78
2021/09/09 01:49:51;;;;;;;11.75;10.30;;;;;;;;;;5046062;28;20098;-79
2021/09/09 01:52:36;;;;;;;14.32;10.77;;;;;;;;;;5046003;28;20067;-78
2021/09/09 01:55:20;;;;;;;11.27;9.93;;;;;;;;;;5030977;28;20040;-79
2021/09/09 01:58:05;;;;;;;11.63;10.15;;;;;;;;;;5045962;28;20158;-79
2021/09/09 02:00:49;;;;;;;13.38;10.70;;;;;;;;;;5045546;28;20055;-79
2021/09/09 02:03:34;;;;;;;12.63;9.90;;;;;;;;;;5044960;28;20044;-76
2021/09/09 02:06:18;;;;;;;13.13;10.50;;;;;;;;;;5046521;28;20043;-78
2021/09/09 02:09:03;;;;;;;11.85;10.23;;;;;;;;;;5045665;28;20466;-78
2021/09/09 02:11:48;;;;;;;13.75;10.75;;;;;;;;;;5031267;28;20118;-78
2021/09/09 02:14:32;;;;;;;13.52;11.05;;;;;;;;;;5045509;28;20136;-78
2021/09/09 02:17:17;;;;;;;12.82;10.02;;;;;;;;;;5046134;28;20091;-77
2021/09/09 02:20:01;;;;;;;13.32;10.10;;;;;;;;;;5045392;28;20140;-78
2021/09/09 02:22:46;;;;;;;12.77;10.70;;;;;;;;;;5031434;28;20079;-79
2021/09/09 02:25:30;;;;;;;13.45;10.05;;;;;;;;;;5046109;28;20055;-79
2021/09/09 02:28:15;;;;;;;12.48;9.93;;;;;;;;;;5032144;28;20031;-79
2021/09/09 02:30:59;;;;;;;11.95;9.77;;;;;;;;;;5045986;28;20064;-79
2021/09/09 02:33:44;;;;;;;14.07;10.60;;;;;;;;;;5044952;28;20077;-80
2021/09/09 02:36:30;;;;;;;15.40;11.55;;;;;;;;;;5046841;28;20047;-79
2021/09/09 02:39:15;;;;;;;13.93;10.55;;;;;;;;;;5044293;28;20044;-79
2021/09/09 02:41:59;;;;;;;15.25;10.68;;;;;;;;;;5045006;28;20910;-78
2021/09/09 02:44:44;;;;;;;11.50;9.68;;;;;;;;;;5045459;28;20118;-79
2021/09/09 02:47:28;;;;;;;12.52;10.25;;;;;;;;;;5030681;28;20103;-79
2021/09/09 02:50:13;;;;;;;11.30;10.05;;;;;;;;;;5045063;28;20513;-79
2021/09/09 02:52:58;;;;;;;14.18;10.63;;;;;;;;;;5046114;28;20406;-78
2021/09/09 02:55:42;;;;;;;13.75;10.23;;;;;;;;;;5045161;28;20603;-79
2021/09/09 02:58:27;;;;;;;15.15;10.75;;;;;;;;;;5030524;28;20159;-78
2021/09/09 03:01:12;;;;;;;15.02;11.52;;;;;;;;;;5045723;28;20626;-78
2021/09/09 03:03:57;;;;;;;14.90;11.30;;;;;;;;;;5031009;28;20094;-78
2021/09/09 03:06:42;;;;;;;12.80;10.35;;;;;;;;;;5044718;28;20731;-78
2021/09/09 03:09:26;;;;;;;14.45;10.70;;;;;;;;;;5044474;28;20040;-78
2021/09/09 03:12:10;;;;;;;12.55;10.70;;;;;;;;;;5029717;28;20086;-78
2021/09/09 03:14:55;;;;;;;14.43;10.55;;;;;;;;;;5045012;28;20040;-78
2021/09/09 03:17:39;;;;;;;12.63;10.65;;;;;;;;;;5029871;28;20040;-79
2021/09/09 03:20:24;;;;;;;13.90;10.52;;;;;;;;;;5044534;28;20082;-78
2021/09/09 03:23:09;;;;;;;13.02;10.63;;;;;;;;;;5043990;28;20048;-79
2021/09/09 03:25:53;;;;;;;15.30;11.40;;;;;;;;;;5043673;28;20040;-79
2021/09/09 03:28:38;;;;;;;16.70;12.55;;;;;;;;;;5045064;28;20032;-79
2021/09/09 03:31:22;;;;;;;15.98;11.27;;;;;;;;;;5042849;28;20090;-77
2021/09/09 03:34:07;;;;;;;12.80;11.05;;;;;;;;;;5044722;28;20047;-77
2021/09/09 03:36:51;;;;;;;14.38;11.40;;;;;;;;;;5043473;28;20114;-78
2021/09/09 03:39:36;;;;;;;15.02;11.70;;;;;;;;;;5043527;28;20040;-78
2021/09/09 03:42:20;;;;;;;13.60;10.48;;;;;;;;;;5044813;28;20501;-78
2021/09/09 03:45:05;;;;;;;15.00;11.52;;;;;;;;;;5044405;28;20086;-78
2021/09/09 03:47:50;;;;;;;12.68;10.68;;;;;;;;;;5043323;28;20108;-78
2021/09/09 03:50:34;;;;;;;14.75;11.15;;;;;;;;;;5044867;28;20076;-78
2021/09/09 03:53:19;;;;;;;15.35;11.60;;;;;;;;;;5042804;28;20116;-78
2021/09/09 03:56:03;;;;;;;15.13;12.38;;;;;;;;;;5042876;28;20543;-77
2021/09/09 03:58:48;;;;;;;13.48;10.55;;;;;;;;;;5028793;28;20102;-79
2021/09/09 04:01:32;;;;;;;13.98;10.63;;;;;;;;;;5045090;28;20171;-80
2021/09/09 04:04:17;;;;;;;13.48;11.02;;;;;;;;;;5043905;28;21644;-77
2021/09/09 04:07:02;;;;;;;13.20;10.60;;;;;;;;;;5048754;28;20071;-78
2021/09/09 04:09:46;;;;;;;15.18;12.18;;;;;;;;;;5043049;28;20059;-78
2021/09/09 04:12:31;;;;;;;14.13;10.60;;;;;;;;;;5044748;28;20032;-78
2021/09/09 04:15:15;;;;;;;14.38;11.48;;;;;;;;;;5042736;28;20099;-78
2021/09/09 04:18:00;;;;;;;14.25;11.23;;;;;;;;;;5042722;28;20413;-78
2021/09/09 04:20:45;;;;;;;15.65;12.00;;;;;;;;;;5029846;28;20124;-78
2021/09/09 04:23:29;;;;;;;13.57;10.90;;;;;;;;;;5042895;28;20107;-78
2021/09/09 04:26:14;;;;;;;15.70;11.00;;;;;;;;;;5042735;28;20131;-78
2021/09/09 04:28:59;;;;;;;15.65;11.93;;;;;;;;;;5042996;28;20035;-78
2021/09/09 04:31:43;;;;;;;15.07;11.85;;;;;;;;;;5043434;28;20043;-78
2021/09/09 04:34:28;;;;;;;16.50;11.77;;;;;;;;;;5042632;28;20043;-79
2021/09/09 04:37:12;;;;;;;16.50;11.35;;;;;;;;;;5042744;28;20497;-78
2021/09/09 04:39:57;;;;;;;16.75;11.40;;;;;;;;;;5043500;28;20452;-77
2021/09/09 04:42:42;;;;;;;14.98;11.18;;;;;;;;;;5041504;28;20800;-78
2021/09/09 04:45:26;;;;;;;14.75;10.70;;;;;;;;;;5042923;28;20078;-77
2021/09/09 04:48:11;;;;;;;13.70;10.70;;;;;;;;;;5027761;28;20044;-78
2021/09/09 04:50:55;;;;;;;16.05;11.13;;;;;;;;;;5040268;28;20397;-80
2021/09/09 04:53:40;;;;;;;17.33;12.85;;;;;;;;;;5041454;28;20110;-78
2021/09/09 04:56:24;;;;;;;16.77;12.20;;;;;;;;;;5042446;28;20087;-77
2021/09/09 04:59:09;;;;;;;16.10;11.40;;;;;;;;;;5040379;28;20473;-78
2021/09/09 05:01:53;;;;;;;19.35;13.57;;;;;;;;;;5026120;28;20052;-77
2021/09/09 05:04:39;;;;;;;15.48;11.75;;;;;;;;;;5039882;28;20044;-78
2021/09/09 05:07:23;;;;;;;14.73;10.35;;;;;;;;;;5041513;28;20117;-80
2021/09/09 05:10:08;;;;;;;16.95;11.93;;;;;;;;;;5040110;28;20414;-78
2021/09/09 05:12:53;;;;;;;16.00;11.32;;;;;;;;;;5040279;28;20043;-79
2021/09/09 05:15:38;;;;;;;16.13;11.80;;;;;;;;;;5040674;28;20167;-80
2021/09/09 05:18:23;;;;;;;18.42;12.10;;;;;;;;;;5039636;28;20410;-79
2021/09/09 05:21:08;;;;;;;17.17;11.95;;;;;;;;;;5041431;28;20880;-79
2021/09/09 05:23:52;;;;;;;15.32;11.77;;;;;;;;;;5040918;28;20226;-79
2021/09/09 05:26:37;;;;;;;17.85;12.55;;;;;;;;;;5039460;28;20044;-79
2021/09/09 05:29:22;;;;;;;19.90;12.75;;;;;;;;;;5041768;28;20075;-78
2021/09/09 05:32:08;;;;;;;15.80;10.90;;;;;;;;;;5025876;28;20184;-78
2021/09/09 05:34:52;;;;;;;19.05;12.32;;;;;;;;;;5040524;28;20039;-77
2021/09/09 05:37:37;;;;;;;15.98;11.60;;;;;;;;;;5040935;28;20048;-78
2021/09/09 05:40:21;;;;;;;14.98;11.18;;;;;;;;;;5025841;28;20064;-78
2021/09/09 05:43:06;;;;;;;18.17;12.43;;;;;;;;;;5040170;28;20052;-78
2021/09/09 05:45:50;;;;;;;16.95;11.95;;;;;;;;;;5041337;28;20264;-79
2021/09/09 05:48:35;;;;;;;16.20;11.30;;;;;;;;;;5025590;28;20056;-78
2021/09/09 05:51:19;;;;;;;13.80;10.75;;;;;;;;;;5026077;28;20040;-78
2021/09/09 05:54:04;;;;;;;15.63;12.00;;;;;;;;;;5042060;28;20409;-78
2021/09/09 05:56:48;;;;;;;15.88;11.75;;;;;;;;;;5044125;28;20068;-77
2021/09/09 05:59:33;;;;;;;16.88;11.77;;;;;;;;;;5029610;28;20800;-78
2021/09/09 06:02:17;;;;;;;18.52;12.30;;;;;;;;;;5042909;28;20725;-78
2021/09/09 06:05:02;;;;;;;14.27;11.55;;;;;;;;;;5044102;28;20071;-79
2021/09/09 06:07:48;;;;;;;15.40;11.82;;;;;;;;;;5043482;28;20060;-79
2021/09/09 06:10:33;;;;;;;15.10;11.43;;;;;;;;;;5044575;28;20044;-78
2021/09/09 06:13:18;;;;;;;16.35;11.70;;;;;;;;;;5042785;28;20123;-79
2021/09/09 06:16:02;;;;;;;16.33;11.88;;;;;;;;;;5028761;28;20580;-78
2021/09/09 06:18:47;;;;;;;17.48;12.23;;;;;;;;;;5042672;28;20031;-78
2021/09/09 06:21:31;;;;;;;18.75;12.25;;;;;;;;;;5043042;28;20116;-78
2021/09/09 06:24:15;;;;;;;15.23;11.13;;;;;;;;;;5029818;28;20071;-79
2021/09/09 06:27:00;;;;;;;15.93;11.20;;;;;;;;;;5043669;28;20090;-78
2021/09/09 06:29:44;;;;;;;15.18;11.05;;;;;;;;;;5042714;28;20048;-79
2021/09/09 06:32:29;;;;;;;16.58;12.27;;;;;;;;;;5028275;28;20063;-78
2021/09/09 06:35:13;;;;;;;15.75;11.63;;;;;;;;;;5042228;28;20052;-78
2021/09/09 06:37:58;;;;;;;14.27;11.18;;;;;;;;;;5042424;28;21586;-78
2021/09/09 06:40:42;;;;;;;15.63;11.40;;;;;;;;;;5042904;28;20086;-78
2021/09/09 06:43:27;;;;;;;15.02;10.90;;;;;;;;;;5043438;28;20130;-78
2021/09/09 06:46:11;;;;;;;17.17;11.48;;;;;;;;;;5042558;28;20398;-78
2021/09/09 06:48:56;;;;;;;14.65;11.13;;;;;;;;;;5044149;28;20059;-78
2021/09/09 06:51:40;;;;;;;17.05;11.80;;;;;;;;;;5028485;28;20076;-78
2021/09/09 06:54:25;;;;;;;15.68;10.40;;;;;;;;;;5041936;28;20555;-78
2021/09/09 06:57:09;;;;;;;13.60;10.40;;;;;;;;;;5042236;28;20040;-78
2021/09/09 06:59:54;;;;;;;14.45;10.70;;;;;;;;;;5042685;28;20137;-77
2021/09/09 07:02:39;;;;;;;14.10;11.07;;;;;;;;;;5041838;28;20192;-78
2021/09/09 07:05:23;;;;;;;15.45;11.30;;;;;;;;;;5041594;28;20135;-78
2021/09/09 07:08:08;;;;;;;12.90;9.63;;;;;;;;;;5041877;28;20498;-78
2021/09/09 07:10:52;;;;;;;16.60;11.75;;;;;;;;;;5027471;28;20130;-77
2021/09/09 07:13:37;;;;;;;17.33;12.00;;;;;;;;;;5040714;28;20063;-79
2021/09/09 07:16:21;;;;;;;16.60;11.30;;;;;;;;;;5041164;28;20103;-78
2021/09/09 07:19:06;;;;;;;16.05;11.65;;;;;;;;;;5042491;28;20044;-78
2021/09/09 07:21:50;;;;;;;14.82;10.88;;;;;;;;;;5041552;28;20040;-77
2021/09/09 07:24:35;;;;;;;16.77;11.38;;;;;;;;;;5027776;28;20052;-78
2021/09/09 07:27:20;;;;;;;12.90;10.00;;;;;;;;;;5041663;28;20044;-79
2021/09/09 07:30:05;;;;;;;15.68;10.90;;;;;;;;;;5042674;28;20493;-78
2021/09/09 07:32:49;;;;;;;14.95;10.45;;;;;;;;;;5042886;28;20039;-77
2021/09/09 07:35:34;;;;;;;19.17;12.43;;;;;;;;;;5027356;28;20929;-77
2021/09/09 07:38:18;;;;;;;14.80;10.88;;;;;;;;;;5041050;28;20418;-77
2021/09/09 07:41:03;;;;;;;16.75;11.20;;;;;;;;;;5041340;28;20086;-77
2021/09/09 07:43:48;;;;;;;14.18;10.50;;;;;;;;;;5042518;28;20095;-77
2021/09/09 07:46:33;;;;;;;16.13;11.50;;;;;;;;;;5041686;28;20857;-79
2021/09/09 07:49:17;;;;;;;16.95;10.50;;;;;;;;;;5042810;28;20099;-77
2021/09/09 07:52:02;;;;;;;14.75;10.68;;;;;;;;;;5041824;28;20076;-78
2021/09/09 07:54:47;;;;;;;13.40;10.43;;;;;;;;;;5041706;28;20585;-77
2021/09/09 07:57:32;;;;;;;17.63;11.73;;;;;;;;;;5040701;28;20060;-77
2021/09/09 08:00:16;;;;;;;14.02;11.27;;;;;;;;;;5040170;28;20140;-77
2021/09/09 08:03:01;;;;;;;15.80;11.25;;;;;;;;;;5045563;28;20047;-78
2021/09/09 08:05:45;;;;;;;15.55;11.10;;;;;;;;;;5032729;28;20433;-78
2021/09/09 08:08:30;;;;;;;13.75;10.45;;;;;;;;;;5039649;28;20105;-77
2021/09/09 08:11:14;;;;;;;13.70;10.95;;;;;;;;;;5030284;28;20496;-78
2021/09/09 08:13:58;;;;;;;17.58;11.82;;;;;;;;;;5051503;28;20067;-78
2021/09/09 08:16:43;;;;;;;13.77;9.95;;;;;;;;;;5042830;28;20084;-78
2021/09/09 08:19:28;;;;;;;13.07;10.20;;;;;;;;;;5029027;28;21017;-78
2021/09/09 08:22:12;;;;;;;13.77;11.27;;;;;;;;;;5033639;28;20082;-77
2021/09/09 08:24:57;;;;;;;13.18;10.90;;;;;;;;;;5046754;28;20764;-76
2021/09/09 08:27:41;;;;;;;12.35;10.00;;;;;;;;;;5047247;28;20028;-78
2021/09/09 08:30:26;;;;;;;13.45;10.68;;;;;;;;;;5043820;28;20118;-77
2021/09/09 08:33:10;;;;;;;12.70;10.45;;;;;;;;;;5053773;28;20039;-78
2021/09/09 08:35:55;;;;;;;12.77;10.18;;;;;;;;;;5044934;28;20059;-77
2021/09/09 08:38:40;;;;;;;13.15;10.25;;;;;;;;;;5046552;28;20059;-77
2021/09/09 08:41:25;;;;;;;15.07;11.07;;;;;;;;;;5046801;28;20034;-78
2021/09/09 08:44:12;;;;;;;12.10;9.60;;;;;;;;;;5046877;28;20051;-77
2021/09/09 08:46:57;;;;;;;11.88;10.55;;;;;;;;;;5048318;28;20094;-80
2021/09/09 08:49:41;;;;;;;11.15;9.02;;;;;;;;;;5045653;28;20035;-77
2021/09/09 08:52:26;;;;;;;11.55;8.25;;;;;;;;;;5044462;28;20101;-80
2021/09/09 08:55:11;;;;;;;9.77;8.48;;;;;;;;;;5053274;28;20126;-78
2021/09/09 08:57:56;;;;;;;10.27;8.32;;;;;;;;;;5048808;28;20856;-78
2021/09/09 09:01:00;;;;;;;9.65;8.60;;;;;;;;;;5044165;28;20044;-76
2021/09/09 09:03:48;;;;;;;10.63;9.05;;;;;;;;;;5044106;28;20048;-77
2021/09/09 09:06:34;;;;;;;10.43;8.30;;;;;;;;;;5045725;28;20036;-79
2021/09/09 09:09:20;;;;;;;10.85;8.13;;;;;;;;;;5031387;28;20116;-79
2021/09/09 09:12:06;;;;;;;10.77;9.15;;;;;;;;;;5044830;28;20079;-80
2021/09/09 09:14:51;;;;;;;10.82;8.45;;;;;;;;;;5044939;28;20048;-78
2021/09/09 09:17:51;;;;;;;10.07;8.45;;;;;;;;;;5033966;28;20070;-78
2021/09/09 09:20:44;;;;;;;9.93;8.48;;;;;;;;;;5042888;28;20071;-78
2021/09/09 09:23:28;;;;;;;10.75;8.38;;;;;;;;;;5045538;28;20107;-78
2021/09/09 09:26:13;;;;;;;10.70;8.60;;;;;;;;;;5045566;28;20169;-78
2021/09/09 09:28:58;;;;;;;8.95;8.05;;;;;;;;;;5046955;28;20203;-77
2021/09/09 09:31:43;;;;;;;9.30;8.10;;;;;;;;;;5050356;28;20039;-78
2021/09/09 09:34:28;;;;;;;9.45;7.93;;;;;;;;;;5048433;28;20059;-77
2021/09/09 09:37:20;;;;;;;9.32;7.85;;;;;;;;;;5049013;28;20059;-78
2021/09/09 09:40:04;;;;;;;;;;;;;;;;;;5024702;28;20041;-79
2021/09/09 09:42:49;;;;;;;8.90;7.40;;;;;;;;;;5044405;28;19969;-77
2021/09/09 09:45:34;;;;;;;10.52;8.45;;;;;;;;;;5034496;28;20052;-78
2021/09/09 09:48:29;;;;;;;10.00;8.60;;;;;;;;;;5042099;28;20057;-78
2021/09/09 09:51:14;;;;;;;9.73;8.00;;;;;;;;;;5028849;28;20489;-78
2021/09/09 09:54:08;;;;;;;8.52;7.72;;;;;;;;;;5045277;28;20126;-78
2021/09/09 09:56:53;;;;;;;10.10;7.70;;;;;;;;;;5033447;28;20109;-78
2021/09/09 09:59:38;;;;;;;12.13;8.32;;;;;;;;;;5034390;28;20452;-78
2021/09/09 10:02:23;;;;;;;10.13;8.38;;;;;;;;;;5053728;28;20120;-78
2021/09/09 10:05:08;;;;;;;9.80;7.95;;;;;;;;;;5057558;28;20052;-81
2021/09/09 10:07:53;;;;;;;13.05;8.30;;;;;;;;;;5042616;28;20372;-77
2021/09/09 10:10:38;;;;;;;11.57;8.05;;;;;;;;;;5047665;28;20040;-79
2021/09/09 10:13:22;;;;;;;11.13;8.57;;;;;;;;;;5030860;28;20444;-77
2021/09/09 10:16:07;;;;;;;13.65;8.57;;;;;;;;;;5033402;28;20499;-76
2021/09/09 10:18:52;;;;;;;14.65;8.35;;;;;;;;;;5041476;28;20063;-77
2021/09/09 10:21:44;;;;;;;12.73;8.52;;;;;;;;;;5036653;28;20047;-77
2021/09/09 10:24:29;;;;;;;10.60;8.43;;;;;;;;;;5038954;28;20129;-77
2021/09/09 10:27:18;;;;;;;11.63;8.68;;;;;;;;;;5045675;28;20044;-77
2021/09/09 10:30:06;;;;;;;11.05;7.78;;;;;;;;;;5028871;28;20406;-77
2021/09/09 10:32:52;;;;;;;11.50;7.93;;;;;;;;;;5032858;28;20036;-76
2021/09/09 10:35:37;;;;;;;9.90;7.88;;;;;;;;;;5045187;28;20063;-76
2021/09/09 10:38:22;;;;;;;11.20;7.85;;;;;;;;;;5046333;28;20059;-76
2021/09/09 10:41:06;;;;;;;11.35;8.10;;;;;;;;;;5043808;28;20047;-75
2021/09/09 10:43:51;;;;;;;10.25;7.70;;;;;;;;;;5043839;28;20644;-78
2021/09/09 10:46:39;;;;;;;12.00;8.32;;;;;;;;;;5043301;28;20079;-77
2021/09/09 10:49:24;;;;;;;15.98;8.57;;;;;;;;;;5032903;28;20040;-74
2021/09/09 10:52:12;;;;;;;15.40;8.75;;;;;;;;;;5046283;28;20091;-73
2021/09/09 10:55:00;;;;;;;14.85;8.70;;;;;;;;;;5047363;28;20044;-75
2021/09/09 10:57:45;;;;;;;13.10;8.15;;;;;;;;;;5034281;28;20106;-75
2021/09/09 11:01:02;;;;;;;16.25;9.07;;;;;;;;;;5034890;28;20438;-74
2021/09/09 11:03:48;;;;;;;11.98;7.75;;;;;;;;;;5019458;28;20218;-76
2021/09/09 11:06:32;;;;;;;12.07;8.57;;;;;;;;;;5044509;28;20477;-74
2021/09/09 11:09:17;;;;;;;13.00;8.00;;;;;;;;;;5044543;28;20039;-74
2021/09/09 11:12:03;;;;;;;12.13;8.00;;;;;;;;;;5043005;28;20090;-74
2021/09/09 11:14:47;;;;;;;13.00;8.20;;;;;;;;;;5045445;28;20144;-74
2021/09/09 11:17:32;;;;;;;13.23;8.60;;;;;;;;;;5047328;28;20076;-74
2021/09/09 11:20:17;;;;;;;13.70;8.75;;;;;;;;;;5029862;28;20817;-74
2021/09/09 11:23:08;;;;;;;12.05;8.40;;;;;;;;;;5045843;28;20473;-75
2021/09/09 11:25:53;;;;;;;15.82;8.27;;;;;;;;;;5045388;28;20087;-74
2021/09/09 11:28:38;;;;;;;12.43;8.38;;;;;;;;;;5043854;28;20089;-74
2021/09/09 11:31:23;;;;;;;12.65;7.95;;;;;;;;;;5034952;28;20071;-74
2021/09/09 11:34:08;;;;;;;11.57;7.97;;;;;;;;;;5045937;28;20504;-74
2021/09/09 11:36:53;;;;;;;11.75;8.25;;;;;;;;;;5041336;28;20147;-74
2021/09/09 11:39:37;;;;;;;13.40;8.52;;;;;;;;;;5045057;28;20040;-76
2021/09/09 11:42:23;;;;;;;10.80;8.00;;;;;;;;;;5032452;28;20084;-74
2021/09/09 11:45:08;;;;;;;13.77;8.20;;;;;;;;;;5045725;28;20508;-75
2021/09/09 11:48:06;;;;;;;11.90;7.90;;;;;;;;;;5045768;28;20063;-74
2021/09/09 11:50:50;;;;;;;12.05;8.35;;;;;;;;;;5033732;28;20059;-73
2021/09/09 11:53:34;;;;;;;15.70;8.27;;;;;;;;;;5035452;28;20611;-79
2021/09/09 11:56:42;;;;;;;16.08;8.40;;;;;;;;;;5046403;28;20055;-78
2021/09/09 11:59:26;;;;;;;9.82;7.53;;;;;;;;;;5039866;28;20087;-76
2021/09/09 12:02:11;;;;;;;15.23;8.20;;;;;;;;;;5029626;28;20039;-77
2021/09/09 12:04:56;;;;;;;13.32;8.35;;;;;;;;;;5045142;28;20052;-77
2021/09/09 12:07:41;;;;;;;16.15;8.38;;;;;;;;;;5043315;28;20036;-77
2021/09/09 12:10:25;;;;;;;14.18;8.20;;;;;;;;;;5043494;28;20044;-77
2021/09/09 12:13:10;;;;;;;12.50;8.10;;;;;;;;;;5042344;28;20044;-77
2021/09/09 12:15:55;;;;;;;12.13;7.82;;;;;;;;;;5045190;28;20497;-78
2021/09/09 12:18:39;;;;;;;11.32;7.45;;;;;;;;;;5021084;28;20040;-77
2021/09/09 12:21:24;;;;;;;10.75;8.00;;;;;;;;;;5036558;28;20106;-77
2021/09/09 12:24:12;;;;;;;12.35;7.90;;;;;;;;;;5021008;28;20123;-77
2021/09/09 12:27:00;;;;;;;12.52;7.25;;;;;;;;;;5036694;28;20500;-77
2021/09/09 12:29:47;;;;;;;12.43;7.30;;;;;;;;;;5035113;28;20062;-76
2021/09/09 12:32:31;;;;;;;10.65;7.43;;;;;;;;;;5042206;28;20028;-79
2021/09/09 12:35:19;;;;;;;11.35;7.47;;;;;;;;;;5043510;28;20047;-76
2021/09/09 12:38:04;;;;;;;11.27;7.35;;;;;;;;;;5044838;28;20115;-76
2021/09/09 12:40:48;;;;;;;9.65;6.90;;;;;;;;;;5030638;28;20115;-77
2021/09/09 12:43:34;;;;;;;11.15;7.18;;;;;;;;;;5035880;28;20067;-78
2021/09/09 12:46:25;;;;;;;11.75;8.00;;;;;;;;;;5039396;28;20717;-79
2021/09/09 12:49:14;;;;;;;;;;;;;;;;;;5023749;28;20087;-79
2021/09/09 12:52:12;;;;;;;13.38;7.57;;;;;;;;;;5033956;28;19931;-79
2021/09/09 12:54:56;;;;;;;11.77;6.90;;;;;;;;;;5038558;28;20087;-78
2021/09/09 12:57:41;;;;;;;11.10;7.53;;;;;;;;;;5035367;28;20523;-79
2021/09/09 13:00:25;;;;;;;10.25;7.35;;;;;;;;;;5038222;28;20111;-79
2021/09/09 13:03:10;;;;;;;13.00;6.97;;;;;;;;;;5034183;28;20048;-78
2021/09/09 13:05:55;;;;;;;10.95;6.93;;;;;;;;;;5044558;28;20519;-76
2021/09/09 13:08:40;;;;;;;11.75;6.53;;;;;;;;;;5023901;28;20067;-76
2021/09/09 13:11:24;;;;;;;8.80;6.50;;;;;;;;;;5042417;28;20525;-78
2021/09/09 13:14:09;;;;;;;11.48;6.70;;;;;;;;;;5043994;28;20079;-76
2021/09/09 13:16:53;;;;;;;8.90;6.65;;;;;;;;;;5022561;28;20044;-76
2021/09/09 13:19:38;;;;;;;8.55;5.80;;;;;;;;;;5031797;28;20067;-76
2021/09/09 13:22:23;;;;;;;9.20;6.50;;;;;;;;;;5031528;28;20047;-79
2021/09/09 13:25:08;;;;;;;10.32;6.45;;;;;;;;;;5025781;28;20061;-78
2021/09/09 13:27:53;;;;;;;9.32;6.35;;;;;;;;;;5037666;28;20078;-78
2021/09/09 13:30:38;;;;;;;8.77;6.63;;;;;;;;;;5047657;28;20477;-76
2021/09/09 13:33:23;;;;;;;8.27;6.22;;;;;;;;;;5045427;28;20072;-77
2021/09/09 13:36:07;;;;;;;8.55;6.32;;;;;;;;;;5045149;28;20079;-79
2021/09/09 13:38:52;;;;;;;8.43;6.10;;;;;;;;;;5040936;28;20579;-78
2021/09/09 13:41:37;;;;;;;8.52;6.25;;;;;;;;;;5030868;28;20166;-77
2021/09/09 13:44:21;;;;;;;8.27;6.22;;;;;;;;;;5033596;28;20118;-77
2021/09/09 13:47:06;;;;;;;7.63;5.90;;;;;;;;;;5030792;28;20036;-78
2021/09/09 13:49:51;;;;;;;9.02;6.03;;;;;;;;;;5041714;28;20095;-78
2021/09/09 13:52:35;;;;;;;10.32;6.13;;;;;;;;;;5042729;28;20577;-78
2021/09/09 13:55:20;;;;;;;7.28;5.60;;;;;;;;;;5044428;28;20086;-78
2021/09/09 13:58:05;;;;;;;9.40;5.80;;;;;;;;;;5043096;28;20075;-78
2021/09/09 14:00:50;;;;;;;9.70;6.10;;;;;;;;;;5043743;28;20063;-78
2021/09/09 14:03:34;;;;;;;8.55;5.60;;;;;;;;;;5034751;28;20048;-76
2021/09/09 14:06:19;;;;;;;8.80;5.60;;;;;;;;;;5034478;28;20048;-77
2021/09/09 14:09:04;;;;;;;7.20;5.57;;;;;;;;;;5038644;28;20063;-79
2021/09/09 14:11:48;;;;;;;8.77;5.40;;;;;;;;;;5037862;28;20048;-77
2021/09/09 14:14:33;;;;;;;9.65;5.85;;;;;;;;;;5023908;28;20036;-77
2021/09/09 14:17:17;;;;;;;10.25;5.57;;;;;;;;;;5043599;28;20519;-77
2021/09/09 14:20:04;;;;;;;9.65;5.70;;;;;;;;;;5040185;28;20144;-77
2021/09/09 14:22:48;;;;;;;9.35;5.30;;;;;;;;;;5035445;28;20504;-78
2021/09/09 14:25:33;;;;;;;8.02;5.32;;;;;;;;;;5039307;28;20376;-77
2021/09/09 14:28:17;;;;;;;7.50;5.47;;;;;;;;;;5022268;28;20114;-78
2021/09/09 14:31:02;;;;;;;8.18;5.30;;;;;;;;;;5038521;28;20040;-79
2021/09/09 14:33:46;;;;;;;7.10;4.93;;;;;;;;;;5037789;28;20573;-78
2021/09/09 14:36:31;;;;;;;10.18;5.47;;;;;;;;;;5037155;28;20454;-78
2021/09/09 14:39:16;;;;;;;8.18;5.40;;;;;;;;;;5040706;28;20114;-77
2021/09/09 14:42:01;;;;;;;9.05;4.82;;;;;;;;;;5041300;28;20064;-78
2021/09/09 14:44:45;;;;;;;9.68;5.20;;;;;;;;;;5019292;28;20505;-77
2021/09/09 14:47:30;;;;;;;9.57;5.63;;;;;;;;;;5037394;28;20035;-77
2021/09/09 14:50:15;;;;;;;9.23;5.55;;;;;;;;;;5022918;28;20441;-79
2021/09/09 14:53:00;;;;;;;8.60;5.13;;;;;;;;;;5037847;28;20555;-78
2021/09/09 14:55:44;;;;;;;7.97;5.40;;;;;;;;;;5033377;28;20592;-77
2021/09/09 14:58:29;;;;;;;8.73;5.45;;;;;;;;;;5037475;28;20075;-77
2021/09/09 15:01:13;;;;;;;7.22;4.70;;;;;;;;;;5031855;28;20493;-78
2021/09/09 15:03:58;;;;;;;11.32;5.95;;;;;;;;;;5022110;28;20575;-78
2021/09/09 15:06:43;;;;;;;8.07;4.97;;;;;;;;;;5027660;28;20394;-78
2021/09/09 15:09:27;;;;;;;6.60;5.05;;;;;;;;;;5039429;28;20536;-78
2021/09/09 15:12:12;;;;;;;7.32;5.10;;;;;;;;;;5028752;28;20040;-78
2021/09/09 15:14:57;;;;;;;7.72;5.43;;;;;;;;;;5044153;28;20044;-78
2021/09/09 15:17:41;;;;;;;7.78;4.97;;;;;;;;;;5048083;28;20043;-77
2021/09/09 15:20:26;;;;;;;8.40;5.32;;;;;;;;;;5062827;28;20089;-77
2021/09/09 15:23:11;;;;;;;8.63;5.10;;;;;;;;;;5034008;28;20076;-78
2021/09/09 15:25:55;;;;;;;9.57;5.10;;;;;;;;;;5057079;28;20098;-77
2021/09/09 15:28:40;;;;;;;9.15;4.93;;;;;;;;;;5044059;28;20128;-77
2021/09/09 15:31:25;;;;;;;7.07;4.80;;;;;;;;;;5043805;28;20076;-76
2021/09/09 15:34:10;;;;;;;7.65;4.80;;;;;;;;;;5044529;28;20462;-78
2021/09/09 15:36:54;;;;;;;6.82;4.78;;;;;;;;;;5044748;28;20110;-78
2021/09/09 15:39:39;;;;;;;6.75;4.75;;;;;;;;;;5038691;28;20059;-77
2021/09/09 15:42:23;;;;;;;5.93;4.88;;;;;;;;;;5047284;28;20777;-78
2021/09/09 15:45:08;;;;;;;6.70;4.85;;;;;;;;;;5029131;28;20136;-78
2021/09/09 15:47:55;;;;;;;6.45;4.93;;;;;;;;;;5040982;28;20067;-78
2021/09/09 15:50:40;;;;;;;7.35;5.10;;;;;;;;;;5043722;28;20058;-77
2021/09/09 15:53:25;;;;;;;8.18;4.63;;;;;;;;;;5010225;28;20400;-78
2021/09/09 15:56:09;;;;;;;7.03;4.63;;;;;;;;;;5024378;28;20545;-78
2021/09/09 15:58:54;;;;;;;7.18;4.97;;;;;;;;;;5026138;28;20091;-77
2021/09/09 16:01:39;;;;;;;8.13;4.50;;;;;;;;;;5029186;28;20039;-78
2021/09/09 16:04:23;;;;;;;7.53;4.85;;;;;;;;;;5035034;28;20091;-78
2021/09/09 16:07:08;;;;;;;8.98;4.65;;;;;;;;;;5037531;28;20075;-77
2021/09/09 16:09:52;;;;;;;8.18;4.40;;;;;;;;;;5045591;28;20141;-76